sensor_id;sensor_type;location;lat;lon;timestamp;P1;durP1;ratioP1;P2;durP2;ratioP2
5937;SDS011;2994;51.220;4.412;2024-03-08T00:01:12;34.20;;;24.60;;
5937;SDS011;2994;51.220;4.412;2024-03-08T00:03:41;36.90;;;24.70;;
5937;SDS011;2994;51.220;4.412;2024-03-08T00:06:15;32.93;;;23.77;;
5937;SDS011;2994;51.220;4.412;2024-03-08T00:08:46;32.07;;;20.80;;
5937;SDS011;2994;51.220;4.412;2024-03-08T00:11:17;35.00;;;22.93;;
5937;SDS011;2994;51.220;4.412;2024-03-08T00:13:48;27.20;;;20.90;;
5937;SDS011;2994;51.220;4.412;2024-03-08T00:21:36;36.10;;;22.67;;
5937;SDS011;2994;51.220;4.412;2024-03-08T00:24:05;36.90;;;23.30;;
5937;SDS011;2994;51.220;4.412;2024-03-08T00:26:33;34.53;;;24.13;;
5937;SDS011;2994;51.220;4.412;2024-03-08T00:29:07;36.27;;;25.50;;
5937;SDS011;2994;51.220;4.412;2024-03-08T00:31:41;33.20;;;23.23;;
5937;SDS011;2994;51.220;4.412;2024-03-08T00:37:16;30.50;;;22.93;;
5937;SDS011;2994;51.220;4.412;2024-03-08T00:39:58;29.97;;;22.03;;
5937;SDS011;2994;51.220;4.412;2024-03-08T00:42:34;33.47;;;22.90;;
5937;SDS011;2994;51.220;4.412;2024-03-08T00:50:17;31.00;;;22.77;;
5937;SDS011;2994;51.220;4.412;2024-03-08T00:52:56;29.70;;;21.50;;
5937;SDS011;2994;51.220;4.412;2024-03-08T00:55:29;31.30;;;23.10;;
5937;SDS011;2994;51.220;4.412;2024-03-08T00:58:00;32.10;;;21.90;;
5937;SDS011;2994;51.220;4.412;2024-03-08T01:00:28;30.23;;;22.90;;
5937;SDS011;2994;51.220;4.412;2024-03-08T01:02:59;31.40;;;22.60;;
5937;SDS011;2994;51.220;4.412;2024-03-08T01:05:27;26.90;;;21.47;;
5937;SDS011;2994;51.220;4.412;2024-03-08T01:07:55;27.60;;;21.63;;
5937;SDS011;2994;51.220;4.412;2024-03-08T01:10:26;27.47;;;22.10;;
5937;SDS011;2994;51.220;4.412;2024-03-08T01:13:02;33.17;;;22.70;;
5937;SDS011;2994;51.220;4.412;2024-03-08T01:15:39;29.53;;;22.43;;
5937;SDS011;2994;51.220;4.412;2024-03-08T01:18:07;29.20;;;20.80;;
5937;SDS011;2994;51.220;4.412;2024-03-08T01:20:35;28.67;;;21.93;;
5937;SDS011;2994;51.220;4.412;2024-03-08T01:23:00;24.87;;;21.00;;
5937;SDS011;2994;51.220;4.412;2024-03-08T01:25:32;28.60;;;22.37;;
5937;SDS011;2994;51.220;4.412;2024-03-08T01:28:01;28.13;;;19.80;;
5937;SDS011;2994;51.220;4.412;2024-03-08T01:30:27;30.20;;;23.10;;
5937;SDS011;2994;51.220;4.412;2024-03-08T01:32:56;28.80;;;22.37;;
5937;SDS011;2994;51.220;4.412;2024-03-08T01:35:24;25.90;;;21.33;;
5937;SDS011;2994;51.220;4.412;2024-03-08T01:37:52;27.37;;;22.07;;
5937;SDS011;2994;51.220;4.412;2024-03-08T01:40:32;26.90;;;21.60;;
5937;SDS011;2994;51.220;4.412;2024-03-08T01:45:50;27.80;;;21.37;;
5937;SDS011;2994;51.220;4.412;2024-03-08T01:48:16;24.87;;;21.43;;
5937;SDS011;2994;51.220;4.412;2024-03-08T01:50:43;28.50;;;21.13;;
5937;SDS011;2994;51.220;4.412;2024-03-08T01:53:10;26.50;;;23.10;;
5937;SDS011;2994;51.220;4.412;2024-03-08T01:55:37;27.67;;;21.60;;
5937;SDS011;2994;51.220;4.412;2024-03-08T01:58:06;31.80;;;21.30;;
5937;SDS011;2994;51.220;4.412;2024-03-08T02:00:45;29.13;;;20.93;;
5937;SDS011;2994;51.220;4.412;2024-03-08T02:03:11;24.53;;;20.10;;
5937;SDS011;2994;51.220;4.412;2024-03-08T02:05:47;28.33;;;21.40;;
5937;SDS011;2994;51.220;4.412;2024-03-08T02:08:19;29.07;;;20.70;;
5937;SDS011;2994;51.220;4.412;2024-03-08T02:10:50;24.93;;;20.70;;
5937;SDS011;2994;51.220;4.412;2024-03-08T02:13:28;27.53;;;21.27;;
5937;SDS011;2994;51.220;4.412;2024-03-08T02:15:57;26.23;;;22.57;;
5937;SDS011;2994;51.220;4.412;2024-03-08T02:18:30;26.40;;;20.10;;
5937;SDS011;2994;51.220;4.412;2024-03-08T02:21:00;28.77;;;22.27;;
5937;SDS011;2994;51.220;4.412;2024-03-08T02:23:33;26.80;;;20.53;;
5937;SDS011;2994;51.220;4.412;2024-03-08T02:26:02;26.27;;;19.97;;
5937;SDS011;2994;51.220;4.412;2024-03-08T02:28:32;27.80;;;22.07;;
5937;SDS011;2994;51.220;4.412;2024-03-08T02:30:59;23.37;;;20.90;;
5937;SDS011;2994;51.220;4.412;2024-03-08T02:33:33;22.70;;;19.03;;
5937;SDS011;2994;51.220;4.412;2024-03-08T02:36:04;26.83;;;20.70;;
5937;SDS011;2994;51.220;4.412;2024-03-08T02:38:33;28.63;;;21.50;;
5937;SDS011;2994;51.220;4.412;2024-03-08T02:41:03;27.30;;;21.70;;
5937;SDS011;2994;51.220;4.412;2024-03-08T02:43:31;26.13;;;22.33;;
5937;SDS011;2994;51.220;4.412;2024-03-08T02:45:57;26.70;;;21.67;;
5937;SDS011;2994;51.220;4.412;2024-03-08T02:48:23;26.10;;;20.73;;
5937;SDS011;2994;51.220;4.412;2024-03-08T02:50:48;23.93;;;21.10;;
5937;SDS011;2994;51.220;4.412;2024-03-08T02:53:19;25.57;;;20.70;;
5937;SDS011;2994;51.220;4.412;2024-03-08T02:55:47;25.60;;;20.67;;
5937;SDS011;2994;51.220;4.412;2024-03-08T02:58:13;26.30;;;21.47;;
5937;SDS011;2994;51.220;4.412;2024-03-08T03:00:39;25.27;;;20.00;;
5937;SDS011;2994;51.220;4.412;2024-03-08T03:03:06;24.07;;;19.90;;
5937;SDS011;2994;51.220;4.412;2024-03-08T03:05:32;23.10;;;19.03;;
5937;SDS011;2994;51.220;4.412;2024-03-08T03:07:59;24.50;;;19.87;;
5937;SDS011;2994;51.220;4.412;2024-03-08T03:10:24;25.83;;;20.87;;
5937;SDS011;2994;51.220;4.412;2024-03-08T03:12:56;27.93;;;21.57;;
5937;SDS011;2994;51.220;4.412;2024-03-08T03:15:31;28.97;;;21.03;;
5937;SDS011;2994;51.220;4.412;2024-03-08T03:17:58;24.40;;;20.37;;
5937;SDS011;2994;51.220;4.412;2024-03-08T03:20:25;25.20;;;19.37;;
5937;SDS011;2994;51.220;4.412;2024-03-08T03:22:57;25.30;;;20.83;;
5937;SDS011;2994;51.220;4.412;2024-03-08T03:25:28;24.13;;;19.63;;
5937;SDS011;2994;51.220;4.412;2024-03-08T03:28:00;24.67;;;20.50;;
5937;SDS011;2994;51.220;4.412;2024-03-08T03:30:29;25.50;;;20.93;;
5937;SDS011;2994;51.220;4.412;2024-03-08T03:33:01;21.23;;;18.83;;
5937;SDS011;2994;51.220;4.412;2024-03-08T03:35:29;24.03;;;19.60;;
5937;SDS011;2994;51.220;4.412;2024-03-08T03:37:56;23.70;;;20.23;;
5937;SDS011;2994;51.220;4.412;2024-03-08T03:40:54;23.57;;;20.63;;
5937;SDS011;2994;51.220;4.412;2024-03-08T03:43:35;25.10;;;19.33;;
5937;SDS011;2994;51.220;4.412;2024-03-08T03:46:07;21.47;;;18.37;;
5937;SDS011;2994;51.220;4.412;2024-03-08T03:48:40;25.90;;;20.57;;
5937;SDS011;2994;51.220;4.412;2024-03-08T03:51:11;25.30;;;20.03;;
5937;SDS011;2994;51.220;4.412;2024-03-08T03:53:39;24.87;;;20.90;;
5937;SDS011;2994;51.220;4.412;2024-03-08T03:56:05;24.70;;;21.40;;
5937;SDS011;2994;51.220;4.412;2024-03-08T03:58:32;23.50;;;20.90;;
5937;SDS011;2994;51.220;4.412;2024-03-08T04:00:58;23.33;;;20.03;;
5937;SDS011;2994;51.220;4.412;2024-03-08T04:03:24;24.17;;;19.30;;
5937;SDS011;2994;51.220;4.412;2024-03-08T04:05:52;25.70;;;20.23;;
5937;SDS011;2994;51.220;4.412;2024-03-08T04:08:20;24.23;;;21.50;;
5937;SDS011;2994;51.220;4.412;2024-03-08T04:10:54;22.37;;;19.90;;
5937;SDS011;2994;51.220;4.412;2024-03-08T04:13:25;25.83;;;22.47;;
5937;SDS011;2994;51.220;4.412;2024-03-08T04:16:02;24.63;;;21.37;;
5937;SDS011;2994;51.220;4.412;2024-03-08T04:18:30;22.70;;;19.70;;
5937;SDS011;2994;51.220;4.412;2024-03-08T04:21:00;24.20;;;20.83;;
5937;SDS011;2994;51.220;4.412;2024-03-08T04:23:27;25.23;;;20.93;;
5937;SDS011;2994;51.220;4.412;2024-03-08T04:25:59;23.70;;;20.40;;
5937;SDS011;2994;51.220;4.412;2024-03-08T04:28:35;24.50;;;21.83;;
5937;SDS011;2994;51.220;4.412;2024-03-08T04:31:02;25.07;;;20.67;;
5937;SDS011;2994;51.220;4.412;2024-03-08T04:33:30;25.80;;;21.87;;
5937;SDS011;2994;51.220;4.412;2024-03-08T04:35:56;23.97;;;20.30;;
5937;SDS011;2994;51.220;4.412;2024-03-08T04:38:21;27.33;;;22.53;;
5937;SDS011;2994;51.220;4.412;2024-03-08T04:40:48;23.93;;;19.80;;
5937;SDS011;2994;51.220;4.412;2024-03-08T04:43:14;22.50;;;19.90;;
5937;SDS011;2994;51.220;4.412;2024-03-08T04:45:40;24.63;;;20.07;;
5937;SDS011;2994;51.220;4.412;2024-03-08T04:48:08;26.40;;;21.90;;
5937;SDS011;2994;51.220;4.412;2024-03-08T04:50:43;24.37;;;20.23;;
5937;SDS011;2994;51.220;4.412;2024-03-08T04:53:18;23.63;;;21.13;;
5937;SDS011;2994;51.220;4.412;2024-03-08T04:55:46;24.03;;;21.13;;
5937;SDS011;2994;51.220;4.412;2024-03-08T04:58:14;26.07;;;21.40;;
5937;SDS011;2994;51.220;4.412;2024-03-08T05:00:40;23.70;;;19.43;;
5937;SDS011;2994;51.220;4.412;2024-03-08T05:03:06;24.37;;;20.23;;
5937;SDS011;2994;51.220;4.412;2024-03-08T05:05:31;23.80;;;20.67;;
5937;SDS011;2994;51.220;4.412;2024-03-08T05:07:58;23.93;;;21.47;;
5937;SDS011;2994;51.220;4.412;2024-03-08T05:10:24;22.97;;;19.47;;
5937;SDS011;2994;51.220;4.412;2024-03-08T05:12:49;26.87;;;20.70;;
5937;SDS011;2994;51.220;4.412;2024-03-08T05:15:15;24.90;;;21.23;;
5937;SDS011;2994;51.220;4.412;2024-03-08T05:17:46;23.50;;;19.17;;
5937;SDS011;2994;51.220;4.412;2024-03-08T05:20:14;25.83;;;22.23;;
5937;SDS011;2994;51.220;4.412;2024-03-08T05:22:42;26.37;;;20.10;;
5937;SDS011;2994;51.220;4.412;2024-03-08T05:25:08;26.90;;;21.63;;
5937;SDS011;2994;51.220;4.412;2024-03-08T05:27:42;23.40;;;20.63;;
5937;SDS011;2994;51.220;4.412;2024-03-08T05:30:08;23.27;;;19.17;;
5937;SDS011;2994;51.220;4.412;2024-03-08T05:32:40;25.63;;;20.87;;
5937;SDS011;2994;51.220;4.412;2024-03-08T05:35:12;24.20;;;20.57;;
5937;SDS011;2994;51.220;4.412;2024-03-08T05:37:42;27.20;;;21.47;;
5937;SDS011;2994;51.220;4.412;2024-03-08T05:40:08;27.83;;;21.07;;
5937;SDS011;2994;51.220;4.412;2024-03-08T05:42:37;25.53;;;19.83;;
5937;SDS011;2994;51.220;4.412;2024-03-08T05:45:11;24.90;;;20.47;;
5937;SDS011;2994;51.220;4.412;2024-03-08T05:47:45;23.83;;;20.10;;
5937;SDS011;2994;51.220;4.412;2024-03-08T06:08:22;30.07;;;21.90;;
5937;SDS011;2994;51.220;4.412;2024-03-08T06:10:55;23.63;;;20.60;;
5937;SDS011;2994;51.220;4.412;2024-03-08T06:16:23;24.53;;;21.87;;
5937;SDS011;2994;51.220;4.412;2024-03-08T06:18:57;23.70;;;20.03;;
5937;SDS011;2994;51.220;4.412;2024-03-08T06:21:30;24.03;;;21.40;;
5937;SDS011;2994;51.220;4.412;2024-03-08T06:23:59;29.23;;;21.70;;
5937;SDS011;2994;51.220;4.412;2024-03-08T06:26:30;26.47;;;21.93;;
5937;SDS011;2994;51.220;4.412;2024-03-08T06:29:04;24.77;;;20.90;;
5937;SDS011;2994;51.220;4.412;2024-03-08T06:31:32;25.30;;;20.80;;
5937;SDS011;2994;51.220;4.412;2024-03-08T06:34:05;27.40;;;21.60;;
5937;SDS011;2994;51.220;4.412;2024-03-08T06:36:36;31.60;;;23.00;;
5937;SDS011;2994;51.220;4.412;2024-03-08T06:39:07;22.40;;;20.03;;
5937;SDS011;2994;51.220;4.412;2024-03-08T06:41:38;26.10;;;20.40;;
5937;SDS011;2994;51.220;4.412;2024-03-08T06:44:06;26.80;;;22.37;;
5937;SDS011;2994;51.220;4.412;2024-03-08T06:46:48;29.90;;;23.53;;
5937;SDS011;2994;51.220;4.412;2024-03-08T06:49:13;24.77;;;20.70;;
5937;SDS011;2994;51.220;4.412;2024-03-08T06:51:42;26.50;;;21.73;;
5937;SDS011;2994;51.220;4.412;2024-03-08T06:54:12;27.83;;;22.17;;
5937;SDS011;2994;51.220;4.412;2024-03-08T06:56:40;24.13;;;20.80;;
5937;SDS011;2994;51.220;4.412;2024-03-08T06:59:06;26.80;;;20.40;;
5937;SDS011;2994;51.220;4.412;2024-03-08T07:01:35;25.23;;;20.07;;
5937;SDS011;2994;51.220;4.412;2024-03-08T07:04:08;29.33;;;24.13;;
5937;SDS011;2994;51.220;4.412;2024-03-08T07:06:41;25.90;;;21.10;;
5937;SDS011;2994;51.220;4.412;2024-03-08T07:09:07;26.43;;;22.27;;
5937;SDS011;2994;51.220;4.412;2024-03-08T07:11:37;27.60;;;20.97;;
5937;SDS011;2994;51.220;4.412;2024-03-08T07:14:10;27.33;;;21.27;;
5937;SDS011;2994;51.220;4.412;2024-03-08T07:16:36;27.07;;;21.43;;
5937;SDS011;2994;51.220;4.412;2024-03-08T07:19:04;27.20;;;21.80;;
5937;SDS011;2994;51.220;4.412;2024-03-08T07:21:30;28.43;;;21.20;;
5937;SDS011;2994;51.220;4.412;2024-03-08T07:23:56;24.77;;;20.40;;
5937;SDS011;2994;51.220;4.412;2024-03-08T07:26:34;28.37;;;21.60;;
5937;SDS011;2994;51.220;4.412;2024-03-08T07:29:03;27.80;;;21.20;;
5937;SDS011;2994;51.220;4.412;2024-03-08T07:31:33;26.63;;;21.43;;
5937;SDS011;2994;51.220;4.412;2024-03-08T07:34:21;24.90;;;20.80;;
5937;SDS011;2994;51.220;4.412;2024-03-08T07:36:49;25.50;;;20.10;;
5937;SDS011;2994;51.220;4.412;2024-03-08T07:39:25;24.73;;;20.57;;
5937;SDS011;2994;51.220;4.412;2024-03-08T07:41:54;24.33;;;19.40;;
5937;SDS011;2994;51.220;4.412;2024-03-08T07:44:22;25.07;;;19.90;;
5937;SDS011;2994;51.220;4.412;2024-03-08T07:46:53;27.83;;;20.40;;
5937;SDS011;2994;51.220;4.412;2024-03-08T07:49:23;30.27;;;22.07;;
5937;SDS011;2994;51.220;4.412;2024-03-08T07:51:49;24.73;;;20.47;;
5937;SDS011;2994;51.220;4.412;2024-03-08T07:54:15;24.00;;;20.63;;
5937;SDS011;2994;51.220;4.412;2024-03-08T07:56:40;26.33;;;20.80;;
5937;SDS011;2994;51.220;4.412;2024-03-08T07:59:07;26.13;;;21.20;;
5937;SDS011;2994;51.220;4.412;2024-03-08T08:01:33;26.20;;;21.80;;
5937;SDS011;2994;51.220;4.412;2024-03-08T08:04:01;25.00;;;20.40;;
5937;SDS011;2994;51.220;4.412;2024-03-08T08:06:29;28.50;;;19.23;;
5937;SDS011;2994;51.220;4.412;2024-03-08T08:08:58;25.70;;;20.77;;
5937;SDS011;2994;51.220;4.412;2024-03-08T08:11:26;24.90;;;18.83;;
5937;SDS011;2994;51.220;4.412;2024-03-08T08:13:53;26.07;;;21.20;;
5937;SDS011;2994;51.220;4.412;2024-03-08T08:16:20;28.17;;;22.07;;
5937;SDS011;2994;51.220;4.412;2024-03-08T08:18:47;24.03;;;19.67;;
5937;SDS011;2994;51.220;4.412;2024-03-08T08:21:13;22.70;;;20.30;;
5937;SDS011;2994;51.220;4.412;2024-03-08T08:23:39;26.10;;;20.67;;
5937;SDS011;2994;51.220;4.412;2024-03-08T08:26:05;29.63;;;19.03;;
5937;SDS011;2994;51.220;4.412;2024-03-08T08:28:32;23.20;;;19.60;;
5937;SDS011;2994;51.220;4.412;2024-03-08T08:30:58;24.57;;;20.37;;
5937;SDS011;2994;51.220;4.412;2024-03-08T08:33:34;27.27;;;21.00;;
5937;SDS011;2994;51.220;4.412;2024-03-08T08:36:26;23.47;;;18.80;;
5937;SDS011;2994;51.220;4.412;2024-03-08T08:39:03;23.57;;;18.93;;
5937;SDS011;2994;51.220;4.412;2024-03-08T08:41:43;23.97;;;18.90;;
5937;SDS011;2994;51.220;4.412;2024-03-08T08:44:09;25.47;;;19.57;;
5937;SDS011;2994;51.220;4.412;2024-03-08T08:46:38;23.70;;;18.93;;
5937;SDS011;2994;51.220;4.412;2024-03-08T08:49:04;25.23;;;21.07;;
5937;SDS011;2994;51.220;4.412;2024-03-08T08:51:31;24.43;;;19.87;;
5937;SDS011;2994;51.220;4.412;2024-03-08T08:53:58;21.57;;;16.97;;
5937;SDS011;2994;51.220;4.412;2024-03-08T08:56:24;21.67;;;18.87;;
5937;SDS011;2994;51.220;4.412;2024-03-08T08:58:50;24.67;;;18.87;;
5937;SDS011;2994;51.220;4.412;2024-03-08T09:01:18;23.50;;;17.77;;
5937;SDS011;2994;51.220;4.412;2024-03-08T09:03:44;24.07;;;17.87;;
5937;SDS011;2994;51.220;4.412;2024-03-08T09:06:11;24.00;;;19.70;;
5937;SDS011;2994;51.220;4.412;2024-03-08T09:08:38;20.17;;;17.03;;
5937;SDS011;2994;51.220;4.412;2024-03-08T09:11:07;20.00;;;16.50;;
5937;SDS011;2994;51.220;4.412;2024-03-08T09:13:33;19.93;;;16.97;;
5937;SDS011;2994;51.220;4.412;2024-03-08T09:16:02;23.10;;;18.97;;
5937;SDS011;2994;51.220;4.412;2024-03-08T09:18:30;22.60;;;17.70;;
5937;SDS011;2994;51.220;4.412;2024-03-08T09:20:57;24.10;;;18.13;;
5937;SDS011;2994;51.220;4.412;2024-03-08T09:23:24;22.10;;;17.17;;
5937;SDS011;2994;51.220;4.412;2024-03-08T09:25:55;23.53;;;17.40;;
5937;SDS011;2994;51.220;4.412;2024-03-08T09:28:22;21.77;;;18.23;;
5937;SDS011;2994;51.220;4.412;2024-03-08T09:30:50;20.50;;;17.80;;
5937;SDS011;2994;51.220;4.412;2024-03-08T09:33:15;25.33;;;18.70;;
5937;SDS011;2994;51.220;4.412;2024-03-08T09:35:45;20.60;;;16.47;;
5937;SDS011;2994;51.220;4.412;2024-03-08T09:38:16;23.70;;;18.20;;
5937;SDS011;2994;51.220;4.412;2024-03-08T09:40:41;22.23;;;16.47;;
5937;SDS011;2994;51.220;4.412;2024-03-08T09:43:11;24.00;;;17.77;;
5937;SDS011;2994;51.220;4.412;2024-03-08T09:45:40;22.10;;;16.90;;
5937;SDS011;2994;51.220;4.412;2024-03-08T09:48:09;19.37;;;16.40;;
5937;SDS011;2994;51.220;4.412;2024-03-08T09:50:42;18.60;;;16.07;;
5937;SDS011;2994;51.220;4.412;2024-03-08T09:58:46;19.93;;;16.03;;
5937;SDS011;2994;51.220;4.412;2024-03-08T10:04:18;19.77;;;15.40;;
5937;SDS011;2994;51.220;4.412;2024-03-08T10:06:48;19.43;;;15.50;;
5937;SDS011;2994;51.220;4.412;2024-03-08T10:09:17;17.00;;;14.90;;
5937;SDS011;2994;51.220;4.412;2024-03-08T10:22:15;19.63;;;15.77;;
5937;SDS011;2994;51.220;4.412;2024-03-08T10:24:41;19.60;;;14.67;;
5937;SDS011;2994;51.220;4.412;2024-03-08T10:37:27;18.93;;;15.70;;
5937;SDS011;2994;51.220;4.412;2024-03-08T10:40:03;18.83;;;14.90;;
5937;SDS011;2994;51.220;4.412;2024-03-08T10:42:35;18.50;;;15.10;;
5937;SDS011;2994;51.220;4.412;2024-03-08T10:45:26;19.47;;;15.07;;
5937;SDS011;2994;51.220;4.412;2024-03-08T10:50:50;20.20;;;14.67;;
5937;SDS011;2994;51.220;4.412;2024-03-08T11:20:00;20.27;;;15.63;;
5937;SDS011;2994;51.220;4.412;2024-03-08T11:22:31;15.90;;;13.03;;
5937;SDS011;2994;51.220;4.412;2024-03-08T11:25:08;17.17;;;13.57;;
5937;SDS011;2994;51.220;4.412;2024-03-08T11:32:45;20.17;;;16.03;;
5937;SDS011;2994;51.220;4.412;2024-03-08T11:35:20;21.10;;;15.10;;
5937;SDS011;2994;51.220;4.412;2024-03-08T11:37:48;20.03;;;15.47;;
5937;SDS011;2994;51.220;4.412;2024-03-08T11:40:16;17.40;;;13.83;;
5937;SDS011;2994;51.220;4.412;2024-03-08T11:43:00;19.07;;;15.40;;
5937;SDS011;2994;51.220;4.412;2024-03-08T11:45:29;18.93;;;14.80;;
5937;SDS011;2994;51.220;4.412;2024-03-08T11:47:57;19.20;;;15.20;;
5937;SDS011;2994;51.220;4.412;2024-03-08T11:50:24;21.63;;;16.47;;
5937;SDS011;2994;51.220;4.412;2024-03-08T11:52:51;17.13;;;13.70;;
5937;SDS011;2994;51.220;4.412;2024-03-08T11:55:17;17.63;;;14.10;;
5937;SDS011;2994;51.220;4.412;2024-03-08T11:57:44;19.93;;;16.17;;
5937;SDS011;2994;51.220;4.412;2024-03-08T12:00:16;19.90;;;15.60;;
5937;SDS011;2994;51.220;4.412;2024-03-08T12:03:03;20.30;;;15.77;;
5937;SDS011;2994;51.220;4.412;2024-03-08T12:05:29;20.07;;;16.00;;
5937;SDS011;2994;51.220;4.412;2024-03-08T12:07:58;21.17;;;15.30;;
5937;SDS011;2994;51.220;4.412;2024-03-08T12:10:27;18.57;;;15.70;;
5937;SDS011;2994;51.220;4.412;2024-03-08T12:12:53;18.20;;;14.90;;
5937;SDS011;2994;51.220;4.412;2024-03-08T12:15:28;18.13;;;15.07;;
5937;SDS011;2994;51.220;4.412;2024-03-08T12:17:55;16.43;;;14.50;;
5937;SDS011;2994;51.220;4.412;2024-03-08T12:20:22;17.53;;;14.93;;
5937;SDS011;2994;51.220;4.412;2024-03-08T12:22:53;19.73;;;15.53;;
5937;SDS011;2994;51.220;4.412;2024-03-08T12:25:22;16.87;;;14.97;;
5937;SDS011;2994;51.220;4.412;2024-03-08T12:27:56;21.20;;;15.80;;
5937;SDS011;2994;51.220;4.412;2024-03-08T12:30:30;18.13;;;14.17;;
5937;SDS011;2994;51.220;4.412;2024-03-08T12:33:04;17.90;;;14.50;;
5937;SDS011;2994;51.220;4.412;2024-03-08T12:35:35;17.47;;;14.47;;
5937;SDS011;2994;51.220;4.412;2024-03-08T12:38:02;18.83;;;14.70;;
5937;SDS011;2994;51.220;4.412;2024-03-08T12:40:31;14.97;;;13.37;;
5937;SDS011;2994;51.220;4.412;2024-03-08T12:43:08;21.33;;;15.47;;
5937;SDS011;2994;51.220;4.412;2024-03-08T12:45:39;18.30;;;14.53;;
5937;SDS011;2994;51.220;4.412;2024-03-08T12:52:18;21.70;;;16.23;;
5937;SDS011;2994;51.220;4.412;2024-03-08T13:41:02;18.77;;;15.47;;
5937;SDS011;2994;51.220;4.412;2024-03-08T13:43:28;19.23;;;15.90;;
5937;SDS011;2994;51.220;4.412;2024-03-08T13:45:56;19.47;;;15.87;;
5937;SDS011;2994;51.220;4.412;2024-03-08T13:48:25;17.07;;;14.27;;
5937;SDS011;2994;51.220;4.412;2024-03-08T13:50:56;21.20;;;16.27;;
5937;SDS011;2994;51.220;4.412;2024-03-08T13:53:22;18.00;;;14.50;;
5937;SDS011;2994;51.220;4.412;2024-03-08T13:56:07;18.50;;;14.17;;
5937;SDS011;2994;51.220;4.412;2024-03-08T13:58:36;17.60;;;14.90;;
5937;SDS011;2994;51.220;4.412;2024-03-08T14:01:02;16.70;;;14.10;;
5937;SDS011;2994;51.220;4.412;2024-03-08T14:03:30;17.10;;;15.00;;
5937;SDS011;2994;51.220;4.412;2024-03-08T14:05:57;15.10;;;13.23;;
5937;SDS011;2994;51.220;4.412;2024-03-08T14:08:23;17.53;;;13.77;;
5937;SDS011;2994;51.220;4.412;2024-03-08T14:10:49;16.90;;;14.33;;
5937;SDS011;2994;51.220;4.412;2024-03-08T14:13:17;18.47;;;14.83;;
5937;SDS011;2994;51.220;4.412;2024-03-08T14:15:43;19.60;;;15.97;;
5937;SDS011;2994;51.220;4.412;2024-03-08T14:18:11;15.93;;;14.40;;
5937;SDS011;2994;51.220;4.412;2024-03-08T14:20:38;15.37;;;13.70;;
5937;SDS011;2994;51.220;4.412;2024-03-08T14:23:04;20.60;;;15.30;;
5937;SDS011;2994;51.220;4.412;2024-03-08T14:25:32;19.37;;;14.80;;
5937;SDS011;2994;51.220;4.412;2024-03-08T14:27:58;15.57;;;12.90;;
5937;SDS011;2994;51.220;4.412;2024-03-08T14:30:27;17.30;;;15.07;;
5937;SDS011;2994;51.220;4.412;2024-03-08T14:33:03;15.93;;;13.10;;
5937;SDS011;2994;51.220;4.412;2024-03-08T14:35:37;16.73;;;13.40;;
5937;SDS011;2994;51.220;4.412;2024-03-08T14:38:03;15.83;;;13.13;;
5937;SDS011;2994;51.220;4.412;2024-03-08T14:40:29;17.20;;;13.97;;
5937;SDS011;2994;51.220;4.412;2024-03-08T14:42:55;15.90;;;13.90;;
5937;SDS011;2994;51.220;4.412;2024-03-08T14:45:24;16.37;;;11.80;;
5937;SDS011;2994;51.220;4.412;2024-03-08T14:47:51;16.90;;;13.90;;
5937;SDS011;2994;51.220;4.412;2024-03-08T14:50:17;15.30;;;12.70;;
5937;SDS011;2994;51.220;4.412;2024-03-08T14:55:19;16.40;;;13.10;;
5937;SDS011;2994;51.220;4.412;2024-03-08T15:03:00;16.53;;;13.20;;
5937;SDS011;2994;51.220;4.412;2024-03-08T15:08:07;16.70;;;13.07;;
5937;SDS011;2994;51.220;4.412;2024-03-08T15:10:36;17.77;;;14.13;;
5937;SDS011;2994;51.220;4.412;2024-03-08T15:13:04;17.73;;;12.90;;
5937;SDS011;2994;51.220;4.412;2024-03-08T15:15:39;18.53;;;14.40;;
5937;SDS011;2994;51.220;4.412;2024-03-08T15:18:07;15.87;;;13.27;;
5937;SDS011;2994;51.220;4.412;2024-03-08T15:20:33;14.10;;;11.63;;
5937;SDS011;2994;51.220;4.412;2024-03-08T15:22:59;15.47;;;13.43;;
5937;SDS011;2994;51.220;4.412;2024-03-08T15:25:25;16.57;;;13.53;;
5937;SDS011;2994;51.220;4.412;2024-03-08T15:27:54;14.80;;;12.40;;
5937;SDS011;2994;51.220;4.412;2024-03-08T15:30:20;15.40;;;12.20;;
5937;SDS011;2994;51.220;4.412;2024-03-08T15:32:56;17.30;;;14.43;;
5937;SDS011;2994;51.220;4.412;2024-03-08T15:35:28;16.33;;;13.13;;
5937;SDS011;2994;51.220;4.412;2024-03-08T15:37:54;14.27;;;12.70;;
5937;SDS011;2994;51.220;4.412;2024-03-08T15:40:39;16.00;;;13.23;;
5937;SDS011;2994;51.220;4.412;2024-03-08T15:43:04;15.47;;;12.60;;
5937;SDS011;2994;51.220;4.412;2024-03-08T15:45:30;13.93;;;11.70;;
5937;SDS011;2994;51.220;4.412;2024-03-08T15:47:56;15.97;;;12.70;;
5937;SDS011;2994;51.220;4.412;2024-03-08T16:10:11;15.83;;;12.23;;
5937;SDS011;2994;51.220;4.412;2024-03-08T16:12:37;14.50;;;12.50;;
5937;SDS011;2994;51.220;4.412;2024-03-08T16:15:08;14.80;;;12.77;;
5937;SDS011;2994;51.220;4.412;2024-03-08T16:17:36;15.60;;;12.37;;
5937;SDS011;2994;51.220;4.412;2024-03-08T16:20:04;15.03;;;12.20;;
5937;SDS011;2994;51.220;4.412;2024-03-08T16:22:36;13.30;;;11.37;;
5937;SDS011;2994;51.220;4.412;2024-03-08T16:27:39;15.37;;;13.00;;
5937;SDS011;2994;51.220;4.412;2024-03-08T16:30:06;13.67;;;11.90;;
5937;SDS011;2994;51.220;4.412;2024-03-08T16:32:43;15.30;;;12.57;;
5937;SDS011;2994;51.220;4.412;2024-03-08T16:35:22;13.33;;;11.93;;
5937;SDS011;2994;51.220;4.412;2024-03-08T16:37:48;15.20;;;13.10;;
5937;SDS011;2994;51.220;4.412;2024-03-08T16:40:16;15.30;;;12.90;;
5937;SDS011;2994;51.220;4.412;2024-03-08T16:42:48;14.83;;;12.77;;
5937;SDS011;2994;51.220;4.412;2024-03-08T16:45:21;15.33;;;12.60;;
5937;SDS011;2994;51.220;4.412;2024-03-08T16:47:48;14.23;;;12.70;;
5937;SDS011;2994;51.220;4.412;2024-03-08T16:50:16;15.93;;;14.27;;
5937;SDS011;2994;51.220;4.412;2024-03-08T16:52:43;14.83;;;12.43;;
5937;SDS011;2994;51.220;4.412;2024-03-08T16:55:09;15.90;;;11.77;;
5937;SDS011;2994;51.220;4.412;2024-03-08T16:57:40;13.33;;;11.27;;
5937;SDS011;2994;51.220;4.412;2024-03-08T17:00:13;15.30;;;12.97;;
5937;SDS011;2994;51.220;4.412;2024-03-08T17:02:52;14.33;;;12.73;;
5937;SDS011;2994;51.220;4.412;2024-03-08T17:05:22;15.70;;;13.20;;
5937;SDS011;2994;51.220;4.412;2024-03-08T17:07:53;13.23;;;11.73;;
5937;SDS011;2994;51.220;4.412;2024-03-08T17:10:19;16.03;;;13.33;;
5937;SDS011;2994;51.220;4.412;2024-03-08T17:12:45;16.70;;;13.50;;
5937;SDS011;2994;51.220;4.412;2024-03-08T17:15:15;14.77;;;12.13;;
5937;SDS011;2994;51.220;4.412;2024-03-08T17:17:42;14.10;;;12.43;;
5937;SDS011;2994;51.220;4.412;2024-03-08T17:20:12;19.00;;;13.20;;
5937;SDS011;2994;51.220;4.412;2024-03-08T17:22:43;15.83;;;12.50;;
5937;SDS011;2994;51.220;4.412;2024-03-08T17:25:09;15.90;;;12.43;;
5937;SDS011;2994;51.220;4.412;2024-03-08T17:27:40;14.73;;;12.43;;
5937;SDS011;2994;51.220;4.412;2024-03-08T17:30:11;16.33;;;13.50;;
5937;SDS011;2994;51.220;4.412;2024-03-08T17:33:03;14.07;;;11.30;;
5937;SDS011;2994;51.220;4.412;2024-03-08T17:35:34;13.63;;;12.23;;
5937;SDS011;2994;51.220;4.412;2024-03-08T17:38:00;13.00;;;11.60;;
5937;SDS011;2994;51.220;4.412;2024-03-08T17:40:33;13.60;;;11.37;;
5937;SDS011;2994;51.220;4.412;2024-03-08T17:43:03;15.90;;;12.43;;
5937;SDS011;2994;51.220;4.412;2024-03-08T17:45:35;14.67;;;10.70;;
5937;SDS011;2994;51.220;4.412;2024-03-08T17:48:01;14.03;;;11.70;;
5937;SDS011;2994;51.220;4.412;2024-03-08T17:50:40;16.60;;;12.50;;
5937;SDS011;2994;51.220;4.412;2024-03-08T17:53:06;16.93;;;12.67;;
5937;SDS011;2994;51.220;4.412;2024-03-08T17:55:32;14.63;;;13.13;;
5937;SDS011;2994;51.220;4.412;2024-03-08T17:57:58;13.43;;;11.57;;
5937;SDS011;2994;51.220;4.412;2024-03-08T18:00:24;17.30;;;13.10;;
5937;SDS011;2994;51.220;4.412;2024-03-08T18:03:03;14.43;;;11.93;;
5937;SDS011;2994;51.220;4.412;2024-03-08T18:05:30;14.57;;;12.07;;
5937;SDS011;2994;51.220;4.412;2024-03-08T18:08:01;17.27;;;12.23;;